sensor_id;sensor_type;location;lat;lon;timestamp;P1;durP1;ratioP1;P2;durP2;ratioP2
57561;SDS011;43397;51.530;5.974;2022-10-31T00:01:09;27.40;;;17.90;;
57561;SDS011;43397;51.530;5.974;2022-10-31T00:03:37;25.48;;;17.92;;
57561;SDS011;43397;51.530;5.974;2022-10-31T00:06:02;29.10;;;18.42;;
57561;SDS011;43397;51.530;5.974;2022-10-31T00:08:29;28.42;;;18.30;;
57561;SDS011;43397;51.530;5.974;2022-10-31T00:10:55;26.85;;;17.58;;
57561;SDS011;43397;51.530;5.974;2022-10-31T00:13:21;26.13;;;18.85;;
57561;SDS011;43397;51.530;5.974;2022-10-31T00:15:47;24.20;;;18.00;;
57561;SDS011;43397;51.530;5.974;2022-10-31T00:18:13;28.52;;;18.20;;
57561;SDS011;43397;51.530;5.974;2022-10-31T00:20:39;26.13;;;18.38;;
57561;SDS011;43397;51.530;5.974;2022-10-31T00:23:05;28.73;;;18.52;;
57561;SDS011;43397;51.530;5.974;2022-10-31T00:25:34;27.58;;;18.33;;
57561;SDS011;43397;51.530;5.974;2022-10-31T00:28:01;25.45;;;17.20;;
57561;SDS011;43397;51.530;5.974;2022-10-31T00:30:27;26.42;;;17.98;;
57561;SDS011;43397;51.530;5.974;2022-10-31T00:32:53;28.38;;;17.63;;
57561;SDS011;43397;51.530;5.974;2022-10-31T00:35:19;25.27;;;17.90;;
57561;SDS011;43397;51.530;5.974;2022-10-31T00:37:45;26.52;;;16.95;;
57561;SDS011;43397;51.530;5.974;2022-10-31T00:40:11;25.33;;;16.83;;
57561;SDS011;43397;51.530;5.974;2022-10-31T00:42:39;30.13;;;17.80;;
57561;SDS011;43397;51.530;5.974;2022-10-31T00:45:06;26.05;;;16.48;;
57561;SDS011;43397;51.530;5.974;2022-10-31T00:47:32;23.08;;;16.45;;
57561;SDS011;43397;51.530;5.974;2022-10-31T00:49:58;23.83;;;15.98;;
57561;SDS011;43397;51.530;5.974;2022-10-31T00:52:24;25.58;;;15.50;;
57561;SDS011;43397;51.530;5.974;2022-10-31T00:54:50;22.10;;;15.90;;
57561;SDS011;43397;51.530;5.974;2022-10-31T00:57:15;22.30;;;16.05;;
57561;SDS011;43397;51.530;5.974;2022-10-31T00:59:43;22.92;;;15.55;;
57561;SDS011;43397;51.530;5.974;2022-10-31T01:02:09;21.15;;;15.20;;
57561;SDS011;43397;51.530;5.974;2022-10-31T01:04:34;23.77;;;16.52;;
57561;SDS011;43397;51.530;5.974;2022-10-31T01:07:00;24.38;;;16.67;;
57561;SDS011;43397;51.530;5.974;2022-10-31T01:09:26;21.95;;;14.70;;
57561;SDS011;43397;51.530;5.974;2022-10-31T01:11:52;23.60;;;15.10;;
57561;SDS011;43397;51.530;5.974;2022-10-31T01:14:17;21.27;;;14.77;;
57561;SDS011;43397;51.530;5.974;2022-10-31T01:16:46;23.85;;;16.17;;
57561;SDS011;43397;51.530;5.974;2022-10-31T01:19:13;24.27;;;15.60;;
57561;SDS011;43397;51.530;5.974;2022-10-31T01:21:39;21.98;;;15.00;;
57561;SDS011;43397;51.530;5.974;2022-10-31T01:24:05;25.17;;;16.38;;
57561;SDS011;43397;51.530;5.974;2022-10-31T01:26:32;22.58;;;15.43;;
57561;SDS011;43397;51.530;5.974;2022-10-31T01:28:58;25.27;;;16.08;;
57561;SDS011;43397;51.530;5.974;2022-10-31T01:31:26;21.58;;;15.15;;
57561;SDS011;43397;51.530;5.974;2022-10-31T01:33:55;28.02;;;17.40;;
57561;SDS011;43397;51.530;5.974;2022-10-31T01:36:22;25.10;;;16.45;;
57561;SDS011;43397;51.530;5.974;2022-10-31T01:38:50;26.15;;;16.83;;
57561;SDS011;43397;51.530;5.974;2022-10-31T01:41:17;25.17;;;17.75;;
57561;SDS011;43397;51.530;5.974;2022-10-31T01:43:46;28.48;;;16.70;;
57561;SDS011;43397;51.530;5.974;2022-10-31T01:48:42;25.15;;;15.73;;
57561;SDS011;43397;51.530;5.974;2022-10-31T01:51:10;23.83;;;15.57;;
57561;SDS011;43397;51.530;5.974;2022-10-31T01:53:38;23.27;;;15.80;;
57561;SDS011;43397;51.530;5.974;2022-10-31T01:56:05;27.17;;;16.85;;
57561;SDS011;43397;51.530;5.974;2022-10-31T01:58:32;23.33;;;16.27;;
57561;SDS011;43397;51.530;5.974;2022-10-31T02:00:58;20.73;;;14.88;;
57561;SDS011;43397;51.530;5.974;2022-10-31T02:03:25;25.27;;;16.88;;
57561;SDS011;43397;51.530;5.974;2022-10-31T02:05:52;24.58;;;16.30;;
57561;SDS011;43397;51.530;5.974;2022-10-31T02:08:21;23.85;;;15.55;;
57561;SDS011;43397;51.530;5.974;2022-10-31T02:10:51;22.38;;;16.92;;
57561;SDS011;43397;51.530;5.974;2022-10-31T02:13:17;25.48;;;16.20;;
57561;SDS011;43397;51.530;5.974;2022-10-31T02:15:45;24.33;;;16.98;;
57561;SDS011;43397;51.530;5.974;2022-10-31T02:18:15;24.65;;;15.77;;
57561;SDS011;43397;51.530;5.974;2022-10-31T02:20:43;24.17;;;16.17;;
57561;SDS011;43397;51.530;5.974;2022-10-31T02:23:25;23.63;;;16.58;;
57561;SDS011;43397;51.530;5.974;2022-10-31T02:26:12;26.48;;;16.20;;
57561;SDS011;43397;51.530;5.974;2022-10-31T02:29:16;21.55;;;16.13;;
57561;SDS011;43397;51.530;5.974;2022-10-31T02:32:20;25.75;;;16.80;;
57561;SDS011;43397;51.530;5.974;2022-10-31T02:34:52;21.88;;;15.30;;
57561;SDS011;43397;51.530;5.974;2022-10-31T02:37:25;21.95;;;15.20;;
57561;SDS011;43397;51.530;5.974;2022-10-31T02:40:01;20.73;;;15.38;;
57561;SDS011;43397;51.530;5.974;2022-10-31T02:42:31;23.23;;;15.70;;
57561;SDS011;43397;51.530;5.974;2022-10-31T02:45:06;22.70;;;14.85;;
57561;SDS011;43397;51.530;5.974;2022-10-31T02:47:38;21.55;;;15.45;;
57561;SDS011;43397;51.530;5.974;2022-10-31T02:50:04;22.33;;;15.23;;
57561;SDS011;43397;51.530;5.974;2022-10-31T02:52:34;19.88;;;14.23;;
57561;SDS011;43397;51.530;5.974;2022-10-31T02:55:08;20.75;;;14.55;;
57561;SDS011;43397;51.530;5.974;2022-10-31T02:57:35;21.10;;;14.73;;
57561;SDS011;43397;51.530;5.974;2022-10-31T03:00:05;21.35;;;15.30;;
57561;SDS011;43397;51.530;5.974;2022-10-31T03:02:38;22.95;;;14.60;;
57561;SDS011;43397;51.530;5.974;2022-10-31T03:05:17;21.00;;;14.32;;
57561;SDS011;43397;51.530;5.974;2022-10-31T03:07:55;23.70;;;14.75;;
57561;SDS011;43397;51.530;5.974;2022-10-31T03:10:27;22.17;;;15.75;;
57561;SDS011;43397;51.530;5.974;2022-10-31T03:13:01;22.23;;;14.82;;
57561;SDS011;43397;51.530;5.974;2022-10-31T03:15:34;20.88;;;14.38;;
57561;SDS011;43397;51.530;5.974;2022-10-31T03:18:06;22.70;;;13.45;;
57561;SDS011;43397;51.530;5.974;2022-10-31T03:20:36;22.15;;;14.60;;
57561;SDS011;43397;51.530;5.974;2022-10-31T03:23:05;21.48;;;13.55;;
57561;SDS011;43397;51.530;5.974;2022-10-31T03:25:36;19.38;;;13.45;;
57561;SDS011;43397;51.530;5.974;2022-10-31T03:28:04;17.90;;;12.95;;
57561;SDS011;43397;51.530;5.974;2022-10-31T03:30:33;20.02;;;14.05;;
57561;SDS011;43397;51.530;5.974;2022-10-31T03:33:05;19.70;;;13.75;;
57561;SDS011;43397;51.530;5.974;2022-10-31T03:35:35;19.60;;;14.23;;
57561;SDS011;43397;51.530;5.974;2022-10-31T03:38:02;26.30;;;15.90;;
57561;SDS011;43397;51.530;5.974;2022-10-31T03:40:28;27.00;;;14.95;;
57561;SDS011;43397;51.530;5.974;2022-10-31T03:42:58;23.38;;;15.27;;
57561;SDS011;43397;51.530;5.974;2022-10-31T03:45:30;19.92;;;13.52;;
57561;SDS011;43397;51.530;5.974;2022-10-31T03:47:57;20.75;;;14.15;;
57561;SDS011;43397;51.530;5.974;2022-10-31T03:50:27;22.58;;;14.90;;
57561;SDS011;43397;51.530;5.974;2022-10-31T03:53:02;22.05;;;16.17;;
57561;SDS011;43397;51.530;5.974;2022-10-31T03:55:34;24.80;;;16.05;;
57561;SDS011;43397;51.530;5.974;2022-10-31T03:58:07;26.90;;;18.30;;
57561;SDS011;43397;51.530;5.974;2022-10-31T04:00:35;27.15;;;18.30;;
57561;SDS011;43397;51.530;5.974;2022-10-31T04:03:07;26.65;;;18.08;;
57561;SDS011;43397;51.530;5.974;2022-10-31T04:05:37;26.38;;;17.73;;
57561;SDS011;43397;51.530;5.974;2022-10-31T04:08:07;30.08;;;18.80;;
57561;SDS011;43397;51.530;5.974;2022-10-31T04:10:36;27.88;;;18.27;;
57561;SDS011;43397;51.530;5.974;2022-10-31T04:13:04;22.80;;;16.88;;
57561;SDS011;43397;51.530;5.974;2022-10-31T04:15:33;24.30;;;17.65;;
57561;SDS011;43397;51.530;5.974;2022-10-31T04:18:02;30.10;;;17.77;;
57561;SDS011;43397;51.530;5.974;2022-10-31T04:20:30;26.05;;;17.67;;
57561;SDS011;43397;51.530;5.974;2022-10-31T04:22:59;26.20;;;18.35;;
57561;SDS011;43397;51.530;5.974;2022-10-31T04:25:25;24.67;;;18.05;;
57561;SDS011;43397;51.530;5.974;2022-10-31T04:27:51;24.67;;;18.25;;
57561;SDS011;43397;51.530;5.974;2022-10-31T04:30:17;27.98;;;18.08;;
57561;SDS011;43397;51.530;5.974;2022-10-31T04:32:43;25.10;;;17.20;;
57561;SDS011;43397;51.530;5.974;2022-10-31T04:35:09;24.55;;;16.23;;
57561;SDS011;43397;51.530;5.974;2022-10-31T04:37:37;26.95;;;17.55;;
57561;SDS011;43397;51.530;5.974;2022-10-31T04:40:05;24.58;;;17.77;;
57561;SDS011;43397;51.530;5.974;2022-10-31T04:42:31;27.95;;;17.95;;
57561;SDS011;43397;51.530;5.974;2022-10-31T04:44:57;26.33;;;18.65;;
57561;SDS011;43397;51.530;5.974;2022-10-31T04:47:23;25.10;;;17.60;;
57561;SDS011;43397;51.530;5.974;2022-10-31T04:49:48;27.23;;;18.75;;
57561;SDS011;43397;51.530;5.974;2022-10-31T04:52:14;26.13;;;17.85;;
57561;SDS011;43397;51.530;5.974;2022-10-31T04:54:40;24.23;;;18.20;;
57561;SDS011;43397;51.530;5.974;2022-10-31T04:57:07;27.92;;;18.27;;
57561;SDS011;43397;51.530;5.974;2022-10-31T04:59:33;27.05;;;18.90;;
57561;SDS011;43397;51.530;5.974;2022-10-31T05:01:58;29.13;;;19.85;;
57561;SDS011;43397;51.530;5.974;2022-10-31T05:04:24;28.95;;;20.02;;
57561;SDS011;43397;51.530;5.974;2022-10-31T05:06:50;32.05;;;19.63;;
57561;SDS011;43397;51.530;5.974;2022-10-31T05:09:16;29.90;;;20.50;;
57561;SDS011;43397;51.530;5.974;2022-10-31T05:11:42;32.22;;;21.08;;
57561;SDS011;43397;51.530;5.974;2022-10-31T05:14:09;30.52;;;20.60;;
57561;SDS011;43397;51.530;5.974;2022-10-31T05:16:34;36.15;;;22.90;;
57561;SDS011;43397;51.530;5.974;2022-10-31T05:19:00;31.33;;;21.15;;
57561;SDS011;43397;51.530;5.974;2022-10-31T05:21:26;35.05;;;22.77;;
57561;SDS011;43397;51.530;5.974;2022-10-31T05:23:52;33.47;;;21.45;;
57561;SDS011;43397;51.530;5.974;2022-10-31T05:26:18;33.00;;;21.67;;
57561;SDS011;43397;51.530;5.974;2022-10-31T05:28:44;31.90;;;21.17;;
57561;SDS011;43397;51.530;5.974;2022-10-31T05:31:11;34.50;;;21.80;;
57561;SDS011;43397;51.530;5.974;2022-10-31T05:33:37;30.92;;;20.63;;
57561;SDS011;43397;51.530;5.974;2022-10-31T05:36:03;29.00;;;20.30;;
57561;SDS011;43397;51.530;5.974;2022-10-31T05:38:30;30.02;;;19.15;;
57561;SDS011;43397;51.530;5.974;2022-10-31T05:40:56;28.55;;;18.63;;
57561;SDS011;43397;51.530;5.974;2022-10-31T05:43:22;30.17;;;19.80;;
57561;SDS011;43397;51.530;5.974;2022-10-31T05:45:51;25.52;;;19.42;;
57561;SDS011;43397;51.530;5.974;2022-10-31T05:48:18;32.30;;;20.17;;
57561;SDS011;43397;51.530;5.974;2022-10-31T05:50:44;31.50;;;19.23;;
57561;SDS011;43397;51.530;5.974;2022-10-31T05:53:12;29.50;;;20.15;;
57561;SDS011;43397;51.530;5.974;2022-10-31T05:55:38;25.08;;;18.02;;
57561;SDS011;43397;51.530;5.974;2022-10-31T05:58:04;32.63;;;18.58;;
57561;SDS011;43397;51.530;5.974;2022-10-31T06:00:30;27.67;;;18.10;;
57561;SDS011;43397;51.530;5.974;2022-10-31T06:02:59;26.05;;;17.38;;
57561;SDS011;43397;51.530;5.974;2022-10-31T06:05:27;23.88;;;17.23;;
57561;SDS011;43397;51.530;5.974;2022-10-31T06:07:53;24.17;;;17.52;;
57561;SDS011;43397;51.530;5.974;2022-10-31T06:10:19;24.52;;;17.33;;
57561;SDS011;43397;51.530;5.974;2022-10-31T06:12:45;26.40;;;18.05;;
57561;SDS011;43397;51.530;5.974;2022-10-31T06:15:11;25.80;;;17.98;;
57561;SDS011;43397;51.530;5.974;2022-10-31T06:17:37;29.80;;;18.95;;
57561;SDS011;43397;51.530;5.974;2022-10-31T06:20:03;26.10;;;17.23;;
57561;SDS011;43397;51.530;5.974;2022-10-31T06:22:31;25.83;;;17.20;;
57561;SDS011;43397;51.530;5.974;2022-10-31T06:24:57;28.38;;;17.60;;
57561;SDS011;43397;51.530;5.974;2022-10-31T06:27:23;25.80;;;17.90;;
57561;SDS011;43397;51.530;5.974;2022-10-31T06:29:49;28.13;;;17.65;;
57561;SDS011;43397;51.530;5.974;2022-10-31T06:32:15;24.90;;;17.17;;
57561;SDS011;43397;51.530;5.974;2022-10-31T06:34:41;24.65;;;17.23;;
57561;SDS011;43397;51.530;5.974;2022-10-31T06:37:08;28.65;;;18.90;;
57561;SDS011;43397;51.530;5.974;2022-10-31T06:39:36;23.27;;;17.42;;
57561;SDS011;43397;51.530;5.974;2022-10-31T06:42:02;24.67;;;17.80;;
57561;SDS011;43397;51.530;5.974;2022-10-31T06:44:28;27.00;;;17.80;;
57561;SDS011;43397;51.530;5.974;2022-10-31T06:46:54;26.02;;;17.40;;
57561;SDS011;43397;51.530;5.974;2022-10-31T06:49:20;26.77;;;17.45;;
57561;SDS011;43397;51.530;5.974;2022-10-31T06:51:46;30.17;;;17.58;;
57561;SDS011;43397;51.530;5.974;2022-10-31T06:54:13;25.85;;;17.58;;
57561;SDS011;43397;51.530;5.974;2022-10-31T06:56:40;25.48;;;18.30;;
57561;SDS011;43397;51.530;5.974;2022-10-31T06:59:06;26.95;;;18.30;;
57561;SDS011;43397;51.530;5.974;2022-10-31T07:01:31;18.38;;;12.75;;
57561;SDS011;43397;51.530;5.974;2022-10-31T07:03:57;19.58;;;11.32;;
57561;SDS011;43397;51.530;5.974;2022-10-31T07:06:23;21.65;;;13.48;;
57561;SDS011;43397;51.530;5.974;2022-10-31T07:08:49;26.63;;;17.60;;
57561;SDS011;43397;51.530;5.974;2022-10-31T07:11:15;22.80;;;15.70;;
57561;SDS011;43397;51.530;5.974;2022-10-31T07:13:42;24.95;;;16.90;;
57561;SDS011;43397;51.530;5.974;2022-10-31T07:16:08;27.05;;;17.95;;
57561;SDS011;43397;51.530;5.974;2022-10-31T07:18:34;26.45;;;16.00;;
57561;SDS011;43397;51.530;5.974;2022-10-31T07:21:00;22.90;;;16.45;;
57561;SDS011;43397;51.530;5.974;2022-10-31T07:23:27;27.23;;;16.77;;
57561;SDS011;43397;51.530;5.974;2022-10-31T07:25:54;25.65;;;16.35;;
57561;SDS011;43397;51.530;5.974;2022-10-31T07:28:20;22.75;;;16.73;;
57561;SDS011;43397;51.530;5.974;2022-10-31T07:30:50;25.60;;;16.98;;
57561;SDS011;43397;51.530;5.974;2022-10-31T07:33:16;21.23;;;15.18;;
57561;SDS011;43397;51.530;5.974;2022-10-31T07:35:42;21.15;;;15.77;;
57561;SDS011;43397;51.530;5.974;2022-10-31T07:38:08;26.95;;;16.40;;
57561;SDS011;43397;51.530;5.974;2022-10-31T07:40:35;22.58;;;15.60;;
57561;SDS011;43397;51.530;5.974;2022-10-31T07:43:00;25.23;;;16.00;;
57561;SDS011;43397;51.530;5.974;2022-10-31T07:45:26;21.08;;;15.95;;
57561;SDS011;43397;51.530;5.974;2022-10-31T07:47:56;23.90;;;16.33;;
57561;SDS011;43397;51.530;5.974;2022-10-31T07:50:23;23.15;;;15.73;;
57561;SDS011;43397;51.530;5.974;2022-10-31T07:52:57;26.08;;;15.82;;
57561;SDS011;43397;51.530;5.974;2022-10-31T07:55:23;22.33;;;16.92;;
57561;SDS011;43397;51.530;5.974;2022-10-31T07:57:54;24.90;;;15.90;;
57561;SDS011;43397;51.530;5.974;2022-10-31T08:00:21;23.77;;;15.85;;
57561;SDS011;43397;51.530;5.974;2022-10-31T08:02:47;21.42;;;15.73;;
57561;SDS011;43397;51.530;5.974;2022-10-31T08:05:14;23.05;;;15.32;;
57561;SDS011;43397;51.530;5.974;2022-10-31T08:07:40;24.30;;;16.52;;
57561;SDS011;43397;51.530;5.974;2022-10-31T08:10:09;20.08;;;16.20;;
57561;SDS011;43397;51.530;5.974;2022-10-31T08:12:35;22.83;;;15.55;;
57561;SDS011;43397;51.530;5.974;2022-10-31T08:15:01;22.48;;;15.50;;
57561;SDS011;43397;51.530;5.974;2022-10-31T08:17:27;21.85;;;17.00;;
57561;SDS011;43397;51.530;5.974;2022-10-31T08:19:53;24.25;;;17.00;;
57561;SDS011;43397;51.530;5.974;2022-10-31T08:22:20;23.15;;;17.55;;
57561;SDS011;43397;51.530;5.974;2022-10-31T08:24:46;26.40;;;17.52;;
57561;SDS011;43397;51.530;5.974;2022-10-31T08:27:13;26.02;;;18.20;;
57561;SDS011;43397;51.530;5.974;2022-10-31T08:29:38;24.77;;;18.80;;
57561;SDS011;43397;51.530;5.974;2022-10-31T08:32:04;26.85;;;18.40;;
57561;SDS011;43397;51.530;5.974;2022-10-31T08:34:30;29.15;;;19.67;;
57561;SDS011;43397;51.530;5.974;2022-10-31T08:36:56;27.60;;;19.50;;
57561;SDS011;43397;51.530;5.974;2022-10-31T08:39:23;24.40;;;18.92;;
57561;SDS011;43397;51.530;5.974;2022-10-31T08:41:49;27.55;;;20.50;;
57561;SDS011;43397;51.530;5.974;2022-10-31T08:44:15;28.25;;;20.13;;
57561;SDS011;43397;51.530;5.974;2022-10-31T08:46:41;30.00;;;21.20;;
57561;SDS011;43397;51.530;5.974;2022-10-31T08:49:07;32.72;;;22.30;;
57561;SDS011;43397;51.530;5.974;2022-10-31T08:51:33;31.02;;;21.67;;
57561;SDS011;43397;51.530;5.974;2022-10-31T08:53:58;28.88;;;21.27;;
57561;SDS011;43397;51.530;5.974;2022-10-31T08:56:26;29.33;;;21.17;;
57561;SDS011;43397;51.530;5.974;2022-10-31T08:58:52;27.10;;;21.60;;
57561;SDS011;43397;51.530;5.974;2022-10-31T09:01:18;28.17;;;21.67;;
57561;SDS011;43397;51.530;5.974;2022-10-31T09:03:44;28.00;;;21.88;;
57561;SDS011;43397;51.530;5.974;2022-10-31T09:06:10;34.90;;;20.95;;
57561;SDS011;43397;51.530;5.974;2022-10-31T09:08:36;29.45;;;20.80;;
57561;SDS011;43397;51.530;5.974;2022-10-31T09:11:02;29.40;;;20.48;;
57561;SDS011;43397;51.530;5.974;2022-10-31T09:13:30;28.65;;;21.25;;
57561;SDS011;43397;51.530;5.974;2022-10-31T09:15:56;29.20;;;22.73;;
57561;SDS011;43397;51.530;5.974;2022-10-31T09:18:23;28.40;;;21.15;;
57561;SDS011;43397;51.530;5.974;2022-10-31T09:20:49;28.77;;;22.05;;
57561;SDS011;43397;51.530;5.974;2022-10-31T09:23:17;31.33;;;22.70;;
57561;SDS011;43397;51.530;5.974;2022-10-31T09:25:44;36.30;;;24.60;;
57561;SDS011;43397;51.530;5.974;2022-10-31T09:28:11;33.72;;;23.90;;
57561;SDS011;43397;51.530;5.974;2022-10-31T09:30:39;33.40;;;22.52;;
57561;SDS011;43397;51.530;5.974;2022-10-31T09:33:06;29.02;;;20.95;;
57561;SDS011;43397;51.530;5.974;2022-10-31T09:35:34;31.02;;;22.30;;
57561;SDS011;43397;51.530;5.974;2022-10-31T09:38:00;29.17;;;20.92;;
57561;SDS011;43397;51.530;5.974;2022-10-31T09:40:29;31.65;;;21.15;;
57561;SDS011;43397;51.530;5.974;2022-10-31T09:42:59;33.60;;;21.40;;
57561;SDS011;43397;51.530;5.974;2022-10-31T09:45:35;29.67;;;19.70;;
57561;SDS011;43397;51.530;5.974;2022-10-31T09:48:11;28.50;;;20.77;;
57561;SDS011;43397;51.530;5.974;2022-10-31T09:50:52;28.63;;;20.90;;
57561;SDS011;43397;51.530;5.974;2022-10-31T09:53:24;28.50;;;19.52;;
57561;SDS011;43397;51.530;5.974;2022-10-31T09:55:55;32.03;;;20.30;;
57561;SDS011;43397;51.530;5.974;2022-10-31T09:58:23;30.08;;;21.02;;
57561;SDS011;43397;51.530;5.974;2022-10-31T10:00:51;31.80;;;20.35;;
57561;SDS011;43397;51.530;5.974;2022-10-31T10:03:24;27.92;;;19.05;;
57561;SDS011;43397;51.530;5.974;2022-10-31T10:05:57;27.90;;;20.35;;
57561;SDS011;43397;51.530;5.974;2022-10-31T10:08:31;28.23;;;20.30;;
57561;SDS011;43397;51.530;5.974;2022-10-31T10:11:00;34.88;;;22.63;;
57561;SDS011;43397;51.530;5.974;2022-10-31T10:13:42;31.98;;;21.48;;
57561;SDS011;43397;51.530;5.974;2022-10-31T10:16:20;34.67;;;21.55;;
57561;SDS011;43397;51.530;5.974;2022-10-31T10:19:00;27.08;;;20.15;;
57561;SDS011;43397;51.530;5.974;2022-10-31T10:21:39;32.95;;;21.75;;
57561;SDS011;43397;51.530;5.974;2022-10-31T10:24:17;31.90;;;21.27;;
57561;SDS011;43397;51.530;5.974;2022-10-31T10:27:05;32.83;;;21.73;;
57561;SDS011;43397;51.530;5.974;2022-10-31T10:29:42;33.03;;;20.75;;
57561;SDS011;43397;51.530;5.974;2022-10-31T10:32:13;29.27;;;19.98;;
57561;SDS011;43397;51.530;5.974;2022-10-31T10:34:47;30.95;;;21.33;;
57561;SDS011;43397;51.530;5.974;2022-10-31T10:37:19;31.55;;;20.00;;
57561;SDS011;43397;51.530;5.974;2022-10-31T10:39:50;30.90;;;21.27;;
57561;SDS011;43397;51.530;5.974;2022-10-31T10:42:19;34.60;;;20.02;;
57561;SDS011;43397;51.530;5.974;2022-10-31T10:44:47;28.83;;;20.17;;
57561;SDS011;43397;51.530;5.974;2022-10-31T10:47:15;32.25;;;20.08;;
57561;SDS011;43397;51.530;5.974;2022-10-31T10:49:43;31.48;;;20.45;;
57561;SDS011;43397;51.530;5.974;2022-10-31T10:52:24;31.48;;;19.85;;
57561;SDS011;43397;51.530;5.974;2022-10-31T10:55:03;30.45;;;19.58;;
57561;SDS011;43397;51.530;5.974;2022-10-31T10:57:41;36.70;;;20.45;;
57561;SDS011;43397;51.530;5.974;2022-10-31T11:00:18;27.10;;;18.63;;
57561;SDS011;43397;51.530;5.974;2022-10-31T11:02:46;29.92;;;18.65;;
57561;SDS011;43397;51.530;5.974;2022-10-31T11:05:15;35.05;;;19.70;;
57561;SDS011;43397;51.530;5.974;2022-10-31T11:07:48;29.33;;;19.20;;
57561;SDS011;43397;51.530;5.974;2022-10-31T11:10:14;31.10;;;19.40;;
57561;SDS011;43397;51.530;5.974;2022-10-31T11:12:41;31.17;;;19.73;;
57561;SDS011;43397;51.530;5.974;2022-10-31T11:15:16;29.08;;;19.08;;
57561;SDS011;43397;51.530;5.974;2022-10-31T11:17:46;27.63;;;18.05;;
57561;SDS011;43397;51.530;5.974;2022-10-31T11:20:24;29.83;;;18.98;;
57561;SDS011;43397;51.530;5.974;2022-10-31T11:23:00;32.80;;;18.80;;
57561;SDS011;43397;51.530;5.974;2022-10-31T11:25:28;26.20;;;17.35;;
57561;SDS011;43397;51.530;5.974;2022-10-31T11:28:00;29.05;;;19.80;;
57561;SDS011;43397;51.530;5.974;2022-10-31T11:30:26;28.83;;;19.67;;
57561;SDS011;43397;51.530;5.974;2022-10-31T11:32:53;30.40;;;18.48;;
57561;SDS011;43397;51.530;5.974;2022-10-31T11:35:19;24.83;;;17.80;;
57561;SDS011;43397;51.530;5.974;2022-10-31T11:37:49;28.50;;;19.25;;
57561;SDS011;43397;51.530;5.974;2022-10-31T11:40:18;26.50;;;16.67;;
57561;SDS011;43397;51.530;5.974;2022-10-31T11:42:46;28.00;;;18.58;;
57561;SDS011;43397;51.530;5.974;2022-10-31T11:45:14;25.40;;;16.52;;
57561;SDS011;43397;51.530;5.974;2022-10-31T11:47:41;27.73;;;16.57;;
57561;SDS011;43397;51.530;5.974;2022-10-31T11:50:11;24.60;;;17.20;;
57561;SDS011;43397;51.530;5.974;2022-10-31T11:52:45;27.08;;;16.25;;
57561;SDS011;43397;51.530;5.974;2022-10-31T11:55:16;24.98;;;16.05;;
57561;SDS011;43397;51.530;5.974;2022-10-31T11:57:54;28.20;;;16.45;;
57561;SDS011;43397;51.530;5.974;2022-10-31T12:00:22;27.45;;;16.73;;
57561;SDS011;43397;51.530;5.974;2022-10-31T12:02:49;24.23;;;16.48;;
57561;SDS011;43397;51.530;5.974;2022-10-31T12:05:17;27.15;;;16.30;;
57561;SDS011;43397;51.530;5.974;2022-10-31T12:07:44;28.30;;;18.00;;
57561;SDS011;43397;51.530;5.974;2022-10-31T12:10:11;27.08;;;16.83;;
57561;SDS011;43397;51.530;5.974;2022-10-31T12:12:44;29.20;;;17.40;;
57561;SDS011;43397;51.530;5.974;2022-10-31T12:15:22;28.65;;;16.10;;
57561;SDS011;43397;51.530;5.974;2022-10-31T12:17:58;25.00;;;15.25;;
57561;SDS011;43397;51.530;5.974;2022-10-31T12:20:39;25.20;;;15.27;;
57561;SDS011;43397;51.530;5.974;2022-10-31T12:23:17;25.42;;;15.50;;
57561;SDS011;43397;51.530;5.974;2022-10-31T12:25:50;27.38;;;16.77;;
57561;SDS011;43397;51.530;5.974;2022-10-31T12:28:40;28.15;;;16.33;;
57561;SDS011;43397;51.530;5.974;2022-10-31T12:31:19;27.13;;;15.95;;
57561;SDS011;43397;51.530;5.974;2022-10-31T12:33:56;24.05;;;16.15;;
57561;SDS011;43397;51.530;5.974;2022-10-31T12:36:38;24.95;;;15.38;;
57561;SDS011;43397;51.530;5.974;2022-10-31T12:39:17;23.40;;;15.40;;
57561;SDS011;43397;51.530;5.974;2022-10-31T12:41:51;26.77;;;15.82;;
57561;SDS011;43397;51.530;5.974;2022-10-31T12:44:34;24.85;;;16.50;;
57561;SDS011;43397;51.530;5.974;2022-10-31T12:50:27;24.98;;;16.67;;
57561;SDS011;43397;51.530;5.974;2022-10-31T12:53:06;29.02;;;16.60;;
57561;SDS011;43397;51.530;5.974;2022-10-31T12:55:48;24.92;;;17.10;;
57561;SDS011;43397;51.530;5.974;2022-10-31T12:58:23;25.08;;;17.25;;
57561;SDS011;43397;51.530;5.974;2022-10-31T13:00:56;25.08;;;16.38;;
57561;SDS011;43397;51.530;5.974;2022-10-31T13:03:44;28.48;;;17.73;;
57561;SDS011;43397;51.530;5.974;2022-10-31T13:06:13;25.33;;;17.17;;
57561;SDS011;43397;51.530;5.974;2022-10-31T13:08:45;26.85;;;17.33;;
57561;SDS011;43397;51.530;5.974;2022-10-31T13:11:15;29.92;;;17.48;;
57561;SDS011;43397;51.530;5.974;2022-10-31T13:13:47;33.58;;;18.52;;
57561;SDS011;43397;51.530;5.974;2022-10-31T13:16:33;25.90;;;16.95;;
57561;SDS011;43397;51.530;5.974;2022-10-31T13:19:03;28.88;;;18.67;;
57561;SDS011;43397;51.530;5.974;2022-10-31T13:21:36;29.77;;;17.13;;
57561;SDS011;43397;51.530;5.974;2022-10-31T13:24:08;29.98;;;18.27;;
57561;SDS011;43397;51.530;5.974;2022-10-31T13:26:50;28.42;;;17.40;;
57561;SDS011;43397;51.530;5.974;2022-10-31T13:29:20;34.55;;;18.92;;
57561;SDS011;43397;51.530;5.974;2022-10-31T13:31:51;29.88;;;19.13;;
57561;SDS011;43397;51.530;5.974;2022-10-31T13:34:20;26.02;;;17.30;;
57561;SDS011;43397;51.530;5.974;2022-10-31T13:36:53;27.05;;;18.13;;
57561;SDS011;43397;51.530;5.974;2022-10-31T13:39:26;31.30;;;17.65;;
57561;SDS011;43397;51.530;5.974;2022-10-31T13:42:03;26.48;;;17.25;;
57561;SDS011;43397;51.530;5.974;2022-10-31T13:44:36;28.88;;;18.60;;
57561;SDS011;43397;51.530;5.974;2022-10-31T13:47:04;28.50;;;17.33;;
57561;SDS011;43397;51.530;5.974;2022-10-31T13:49:47;26.55;;;16.95;;
57561;SDS011;43397;51.530;5.974;2022-10-31T13:52:13;26.30;;;17.77;;
57561;SDS011;43397;51.530;5.974;2022-10-31T13:54:41;27.35;;;17.60;;
57561;SDS011;43397;51.530;5.974;2022-10-31T13:57:12;28.80;;;17.40;;
57561;SDS011;43397;51.530;5.974;2022-10-31T13:59:46;24.55;;;17.30;;
57561;SDS011;43397;51.530;5.974;2022-10-31T14:02:16;26.67;;;17.23;;
57561;SDS011;43397;51.530;5.974;2022-10-31T14:04:44;28.92;;;17.30;;
57561;SDS011;43397;51.530;5.974;2022-10-31T14:07:16;28.15;;;16.38;;
57561;SDS011;43397;51.530;5.974;2022-10-31T14:09:49;27.95;;;15.63;;
57561;SDS011;43397;51.530;5.974;2022-10-31T14:12:22;29.38;;;16.40;;
57561;SDS011;43397;51.530;5.974;2022-10-31T14:14:53;27.50;;;16.30;;
57561;SDS011;43397;51.530;5.974;2022-10-31T14:17:25;22.65;;;14.93;;
57561;SDS011;43397;51.530;5.974;2022-10-31T14:19:57;28.50;;;14.43;;
57561;SDS011;43397;51.530;5.974;2022-10-31T14:22:28;23.20;;;13.77;;
57561;SDS011;43397;51.530;5.974;2022-10-31T14:24:56;23.45;;;14.00;;
57561;SDS011;43397;51.530;5.974;2022-10-31T14:27:42;24.92;;;13.85;;
57561;SDS011;43397;51.530;5.974;2022-10-31T14:30:17;22.55;;;12.60;;
57561;SDS011;43397;51.530;5.974;2022-10-31T14:32:49;21.73;;;13.85;;
57561;SDS011;43397;51.530;5.974;2022-10-31T14:35:16;19.40;;;12.77;;
57561;SDS011;43397;51.530;5.974;2022-10-31T14:41:01;21.58;;;11.82;;
57561;SDS011;43397;51.530;5.974;2022-10-31T14:46:33;19.63;;;12.25;;